sensor_id;sensor_type;location;lat;lon;timestamp;P1;durP1;ratioP1;P2;durP2;ratioP2
29934;SDS011;19905;53.370;-6.314;2022-07-17T00:01:08;7.75;;;5.38;;
29934;SDS011;19905;53.370;-6.314;2022-07-17T00:03:36;8.57;;;5.57;;
29934;SDS011;19905;53.370;-6.314;2022-07-17T00:06:05;8.52;;;5.68;;
29934;SDS011;19905;53.370;-6.314;2022-07-17T00:08:36;8.57;;;5.57;;
29934;SDS011;19905;53.370;-6.314;2022-07-17T00:11:04;8.50;;;5.53;;
29934;SDS011;19905;53.370;-6.314;2022-07-17T00:13:33;8.93;;;5.80;;
29934;SDS011;19905;53.370;-6.314;2022-07-17T00:16:01;10.75;;;5.55;;
29934;SDS011;19905;53.370;-6.314;2022-07-17T00:18:30;8.73;;;5.70;;
29934;SDS011;19905;53.370;-6.314;2022-07-17T00:20:59;8.25;;;5.72;;
29934;SDS011;19905;53.370;-6.314;2022-07-17T00:23:27;8.70;;;6.10;;
29934;SDS011;19905;53.370;-6.314;2022-07-17T00:25:57;9.82;;;5.90;;
29934;SDS011;19905;53.370;-6.314;2022-07-17T00:28:26;7.95;;;5.70;;
29934;SDS011;19905;53.370;-6.314;2022-07-17T00:30:55;7.55;;;5.40;;
29934;SDS011;19905;53.370;-6.314;2022-07-17T00:33:23;11.75;;;6.25;;
29934;SDS011;19905;53.370;-6.314;2022-07-17T00:35:52;9.80;;;6.32;;
29934;SDS011;19905;53.370;-6.314;2022-07-17T00:38:20;10.68;;;6.50;;
29934;SDS011;19905;53.370;-6.314;2022-07-17T00:40:49;12.00;;;6.85;;
29934;SDS011;19905;53.370;-6.314;2022-07-17T00:43:22;10.95;;;6.90;;
29934;SDS011;19905;53.370;-6.314;2022-07-17T00:45:56;11.93;;;7.82;;
29934;SDS011;19905;53.370;-6.314;2022-07-17T00:48:26;14.57;;;8.13;;
29934;SDS011;19905;53.370;-6.314;2022-07-17T00:50:55;12.70;;;8.32;;
29934;SDS011;19905;53.370;-6.314;2022-07-17T00:53:24;12.63;;;8.77;;
29934;SDS011;19905;53.370;-6.314;2022-07-17T00:55:52;14.20;;;9.15;;
29934;SDS011;19905;53.370;-6.314;2022-07-17T00:58:24;15.25;;;9.00;;
29934;SDS011;19905;53.370;-6.314;2022-07-17T01:00:53;13.02;;;9.18;;
29934;SDS011;19905;53.370;-6.314;2022-07-17T01:03:24;13.60;;;9.32;;
29934;SDS011;19905;53.370;-6.314;2022-07-17T01:05:53;14.40;;;8.80;;
29934;SDS011;19905;53.370;-6.314;2022-07-17T01:08:22;14.38;;;8.63;;
29934;SDS011;19905;53.370;-6.314;2022-07-17T01:10:51;13.23;;;9.43;;
29934;SDS011;19905;53.370;-6.314;2022-07-17T01:13:20;15.27;;;9.82;;
29934;SDS011;19905;53.370;-6.314;2022-07-17T01:15:50;18.30;;;10.45;;
29934;SDS011;19905;53.370;-6.314;2022-07-17T01:18:20;12.25;;;9.45;;
29934;SDS011;19905;53.370;-6.314;2022-07-17T01:20:50;14.60;;;9.85;;
29934;SDS011;19905;53.370;-6.314;2022-07-17T01:23:21;13.93;;;8.90;;
29934;SDS011;19905;53.370;-6.314;2022-07-17T01:25:56;17.30;;;9.20;;
29934;SDS011;19905;53.370;-6.314;2022-07-17T01:28:25;16.15;;;9.43;;
29934;SDS011;19905;53.370;-6.314;2022-07-17T01:30:54;13.43;;;9.40;;
29934;SDS011;19905;53.370;-6.314;2022-07-17T01:33:22;14.40;;;8.85;;
29934;SDS011;19905;53.370;-6.314;2022-07-17T01:35:51;16.73;;;8.38;;
29934;SDS011;19905;53.370;-6.314;2022-07-17T01:38:21;11.57;;;8.43;;
29934;SDS011;19905;53.370;-6.314;2022-07-17T01:40:50;13.27;;;8.80;;
29934;SDS011;19905;53.370;-6.314;2022-07-17T01:43:21;12.07;;;8.38;;
29934;SDS011;19905;53.370;-6.314;2022-07-17T01:45:49;13.52;;;8.23;;
29934;SDS011;19905;53.370;-6.314;2022-07-17T01:48:25;13.15;;;8.30;;
29934;SDS011;19905;53.370;-6.314;2022-07-17T01:50:56;12.45;;;8.00;;
29934;SDS011;19905;53.370;-6.314;2022-07-17T01:53:26;15.00;;;9.05;;
29934;SDS011;19905;53.370;-6.314;2022-07-17T01:55:55;11.57;;;8.00;;
29934;SDS011;19905;53.370;-6.314;2022-07-17T01:58:23;12.38;;;7.70;;
29934;SDS011;19905;53.370;-6.314;2022-07-17T02:00:53;11.73;;;7.43;;
29934;SDS011;19905;53.370;-6.314;2022-07-17T02:03:22;12.98;;;7.47;;
29934;SDS011;19905;53.370;-6.314;2022-07-17T02:05:51;10.00;;;7.28;;
29934;SDS011;19905;53.370;-6.314;2022-07-17T02:08:20;11.73;;;7.15;;
29934;SDS011;19905;53.370;-6.314;2022-07-17T02:10:53;13.98;;;7.10;;
29934;SDS011;19905;53.370;-6.314;2022-07-17T02:13:36;11.52;;;7.25;;
29934;SDS011;19905;53.370;-6.314;2022-07-17T02:16:04;10.05;;;7.07;;
29934;SDS011;19905;53.370;-6.314;2022-07-17T02:18:34;13.35;;;7.57;;
29934;SDS011;19905;53.370;-6.314;2022-07-17T02:21:03;11.40;;;7.20;;
29934;SDS011;19905;53.370;-6.314;2022-07-17T02:23:32;13.00;;;7.25;;
29934;SDS011;19905;53.370;-6.314;2022-07-17T02:26:02;13.80;;;7.28;;
29934;SDS011;19905;53.370;-6.314;2022-07-17T02:28:31;10.82;;;7.05;;
29934;SDS011;19905;53.370;-6.314;2022-07-17T02:31:02;10.95;;;7.25;;
29934;SDS011;19905;53.370;-6.314;2022-07-17T02:33:31;11.13;;;7.70;;
29934;SDS011;19905;53.370;-6.314;2022-07-17T02:36:00;9.50;;;6.85;;
29934;SDS011;19905;53.370;-6.314;2022-07-17T02:38:30;9.23;;;6.50;;
29934;SDS011;19905;53.370;-6.314;2022-07-17T02:40:59;11.90;;;6.72;;
29934;SDS011;19905;53.370;-6.314;2022-07-17T02:43:30;13.82;;;6.97;;
29934;SDS011;19905;53.370;-6.314;2022-07-17T02:45:59;10.82;;;6.90;;
29934;SDS011;19905;53.370;-6.314;2022-07-17T02:48:28;13.25;;;7.00;;
29934;SDS011;19905;53.370;-6.314;2022-07-17T02:50:58;11.10;;;6.43;;
29934;SDS011;19905;53.370;-6.314;2022-07-17T02:53:26;10.85;;;6.95;;
29934;SDS011;19905;53.370;-6.314;2022-07-17T02:55:57;11.50;;;6.93;;
29934;SDS011;19905;53.370;-6.314;2022-07-17T02:58:26;10.43;;;6.75;;
29934;SDS011;19905;53.370;-6.314;2022-07-17T03:00:56;14.88;;;7.07;;
29934;SDS011;19905;53.370;-6.314;2022-07-17T03:03:25;12.82;;;7.35;;
29934;SDS011;19905;53.370;-6.314;2022-07-17T03:05:53;9.50;;;6.75;;
29934;SDS011;19905;53.370;-6.314;2022-07-17T03:08:22;9.45;;;6.63;;
29934;SDS011;19905;53.370;-6.314;2022-07-17T03:11:01;9.50;;;7.07;;
29934;SDS011;19905;53.370;-6.314;2022-07-17T03:13:30;10.45;;;6.95;;
29934;SDS011;19905;53.370;-6.314;2022-07-17T03:16:00;10.32;;;6.60;;
29934;SDS011;19905;53.370;-6.314;2022-07-17T03:18:31;11.82;;;7.03;;
29934;SDS011;19905;53.370;-6.314;2022-07-17T03:21:00;11.43;;;6.70;;
29934;SDS011;19905;53.370;-6.314;2022-07-17T03:23:28;8.80;;;6.60;;
29934;SDS011;19905;53.370;-6.314;2022-07-17T03:25:58;12.10;;;7.20;;
29934;SDS011;19905;53.370;-6.314;2022-07-17T03:28:27;9.60;;;6.43;;
29934;SDS011;19905;53.370;-6.314;2022-07-17T03:30:55;10.55;;;6.72;;
29934;SDS011;19905;53.370;-6.314;2022-07-17T03:33:25;11.63;;;6.40;;
29934;SDS011;19905;53.370;-6.314;2022-07-17T03:35:54;8.02;;;6.07;;
29934;SDS011;19905;53.370;-6.314;2022-07-17T03:38:23;9.95;;;6.30;;
29934;SDS011;19905;53.370;-6.314;2022-07-17T03:40:53;11.20;;;6.72;;
29934;SDS011;19905;53.370;-6.314;2022-07-17T03:43:23;13.32;;;8.13;;
29934;SDS011;19905;53.370;-6.314;2022-07-17T03:45:52;12.63;;;8.00;;
29934;SDS011;19905;53.370;-6.314;2022-07-17T03:48:20;11.70;;;7.20;;
29934;SDS011;19905;53.370;-6.314;2022-07-17T03:50:50;12.43;;;8.15;;
29934;SDS011;19905;53.370;-6.314;2022-07-17T03:53:19;12.57;;;7.20;;
29934;SDS011;19905;53.370;-6.314;2022-07-17T03:55:47;12.63;;;7.05;;
29934;SDS011;19905;53.370;-6.314;2022-07-17T03:58:16;12.05;;;7.00;;
29934;SDS011;19905;53.370;-6.314;2022-07-17T04:00:45;9.68;;;6.88;;
29934;SDS011;19905;53.370;-6.314;2022-07-17T04:03:14;12.65;;;6.63;;
29934;SDS011;19905;53.370;-6.314;2022-07-17T04:05:44;12.57;;;7.43;;
29934;SDS011;19905;53.370;-6.314;2022-07-17T04:08:16;12.57;;;7.85;;
29934;SDS011;19905;53.370;-6.314;2022-07-17T04:10:45;11.10;;;7.25;;
29934;SDS011;19905;53.370;-6.314;2022-07-17T04:13:14;11.10;;;8.07;;
29934;SDS011;19905;53.370;-6.314;2022-07-17T04:15:44;11.40;;;7.75;;
29934;SDS011;19905;53.370;-6.314;2022-07-17T04:18:19;12.80;;;8.25;;
29934;SDS011;19905;53.370;-6.314;2022-07-17T04:20:49;12.05;;;8.05;;
29934;SDS011;19905;53.370;-6.314;2022-07-17T04:23:20;12.52;;;7.90;;
29934;SDS011;19905;53.370;-6.314;2022-07-17T04:25:49;13.98;;;8.13;;
29934;SDS011;19905;53.370;-6.314;2022-07-17T04:28:17;12.38;;;8.27;;
29934;SDS011;19905;53.370;-6.314;2022-07-17T04:30:46;11.77;;;7.80;;
29934;SDS011;19905;53.370;-6.314;2022-07-17T04:33:15;12.27;;;8.05;;
29934;SDS011;19905;53.370;-6.314;2022-07-17T04:35:44;14.63;;;8.45;;
29934;SDS011;19905;53.370;-6.314;2022-07-17T04:38:13;11.80;;;8.45;;
29934;SDS011;19905;53.370;-6.314;2022-07-17T04:40:44;13.70;;;8.45;;
29934;SDS011;19905;53.370;-6.314;2022-07-17T04:43:13;13.63;;;8.40;;
29934;SDS011;19905;53.370;-6.314;2022-07-17T04:45:42;12.10;;;8.07;;
29934;SDS011;19905;53.370;-6.314;2022-07-17T04:48:11;16.50;;;9.05;;
29934;SDS011;19905;53.370;-6.314;2022-07-17T04:50:40;12.80;;;9.07;;
29934;SDS011;19905;53.370;-6.314;2022-07-17T04:53:08;12.77;;;8.65;;
29934;SDS011;19905;53.370;-6.314;2022-07-17T04:55:37;14.73;;;9.30;;
29934;SDS011;19905;53.370;-6.314;2022-07-17T04:58:07;14.00;;;8.95;;
29934;SDS011;19905;53.370;-6.314;2022-07-17T05:00:36;18.65;;;8.55;;
29934;SDS011;19905;53.370;-6.314;2022-07-17T05:03:05;11.93;;;8.52;;
29934;SDS011;19905;53.370;-6.314;2022-07-17T05:05:34;17.80;;;8.95;;
29934;SDS011;19905;53.370;-6.314;2022-07-17T05:08:03;16.75;;;8.90;;
29934;SDS011;19905;53.370;-6.314;2022-07-17T05:10:32;12.15;;;8.50;;
29934;SDS011;19905;53.370;-6.314;2022-07-17T05:13:00;11.15;;;8.13;;
29934;SDS011;19905;53.370;-6.314;2022-07-17T05:15:30;14.18;;;8.38;;
29934;SDS011;19905;53.370;-6.314;2022-07-17T05:18:07;11.50;;;8.15;;
29934;SDS011;19905;53.370;-6.314;2022-07-17T05:20:36;12.38;;;7.85;;
29934;SDS011;19905;53.370;-6.314;2022-07-17T05:23:07;13.63;;;8.00;;
29934;SDS011;19905;53.370;-6.314;2022-07-17T05:25:36;12.07;;;8.32;;
29934;SDS011;19905;53.370;-6.314;2022-07-17T05:28:04;11.60;;;8.07;;
29934;SDS011;19905;53.370;-6.314;2022-07-17T05:30:36;11.95;;;7.28;;
29934;SDS011;19905;53.370;-6.314;2022-07-17T05:33:05;10.30;;;7.07;;
29934;SDS011;19905;53.370;-6.314;2022-07-17T05:35:34;9.68;;;6.78;;
29934;SDS011;19905;53.370;-6.314;2022-07-17T05:38:03;13.32;;;6.82;;
29934;SDS011;19905;53.370;-6.314;2022-07-17T05:40:33;10.18;;;6.50;;
29934;SDS011;19905;53.370;-6.314;2022-07-17T05:43:02;10.80;;;6.80;;
29934;SDS011;19905;53.370;-6.314;2022-07-17T05:45:30;10.57;;;6.47;;
29934;SDS011;19905;53.370;-6.314;2022-07-17T05:48:00;12.75;;;6.65;;
29934;SDS011;19905;53.370;-6.314;2022-07-17T05:50:29;10.23;;;6.38;;
29934;SDS011;19905;53.370;-6.314;2022-07-17T05:52:58;10.52;;;5.82;;
29934;SDS011;19905;53.370;-6.314;2022-07-17T05:58:14;9.73;;;6.85;;
29934;SDS011;19905;53.370;-6.314;2022-07-17T06:00:44;15.50;;;7.32;;
29934;SDS011;19905;53.370;-6.314;2022-07-17T06:03:17;10.60;;;6.80;;
29934;SDS011;19905;53.370;-6.314;2022-07-17T06:05:47;11.23;;;6.60;;
29934;SDS011;19905;53.370;-6.314;2022-07-17T06:08:16;10.25;;;6.40;;
29934;SDS011;19905;53.370;-6.314;2022-07-17T06:10:45;8.82;;;6.10;;
29934;SDS011;19905;53.370;-6.314;2022-07-17T06:13:13;10.68;;;6.22;;
29934;SDS011;19905;53.370;-6.314;2022-07-17T06:15:41;10.27;;;5.72;;
29934;SDS011;19905;53.370;-6.314;2022-07-17T06:18:10;11.45;;;5.70;;
29934;SDS011;19905;53.370;-6.314;2022-07-17T06:20:40;8.50;;;5.43;;
29934;SDS011;19905;53.370;-6.314;2022-07-17T06:23:08;8.38;;;4.65;;
29934;SDS011;19905;53.370;-6.314;2022-07-17T06:25:37;8.80;;;4.78;;
29934;SDS011;19905;53.370;-6.314;2022-07-17T06:28:07;7.82;;;4.65;;
29934;SDS011;19905;53.370;-6.314;2022-07-17T06:30:35;8.65;;;5.03;;
29934;SDS011;19905;53.370;-6.314;2022-07-17T06:33:04;8.88;;;4.25;;
29934;SDS011;19905;53.370;-6.314;2022-07-17T06:35:33;8.68;;;4.63;;
29934;SDS011;19905;53.370;-6.314;2022-07-17T06:38:08;7.95;;;4.40;;
29934;SDS011;19905;53.370;-6.314;2022-07-17T06:40:37;9.68;;;4.20;;
29934;SDS011;19905;53.370;-6.314;2022-07-17T06:43:06;7.53;;;4.13;;
29934;SDS011;19905;53.370;-6.314;2022-07-17T06:45:35;7.78;;;4.25;;
29934;SDS011;19905;53.370;-6.314;2022-07-17T06:48:04;6.32;;;4.15;;
29934;SDS011;19905;53.370;-6.314;2022-07-17T06:50:35;8.48;;;4.18;;
29934;SDS011;19905;53.370;-6.314;2022-07-17T06:53:08;8.90;;;4.55;;
29934;SDS011;19905;53.370;-6.314;2022-07-17T06:55:37;11.27;;;4.18;;
29934;SDS011;19905;53.370;-6.314;2022-07-17T06:58:06;7.60;;;4.22;;
29934;SDS011;19905;53.370;-6.314;2022-07-17T07:00:39;6.82;;;4.25;;
29934;SDS011;19905;53.370;-6.314;2022-07-17T07:03:10;8.63;;;4.20;;
29934;SDS011;19905;53.370;-6.314;2022-07-17T07:05:54;7.97;;;4.40;;
29934;SDS011;19905;53.370;-6.314;2022-07-17T07:08:24;9.52;;;4.05;;
29934;SDS011;19905;53.370;-6.314;2022-07-17T07:10:53;8.25;;;4.20;;
29934;SDS011;19905;53.370;-6.314;2022-07-17T07:13:22;10.70;;;3.92;;
29934;SDS011;19905;53.370;-6.314;2022-07-17T07:15:51;8.95;;;4.05;;
29934;SDS011;19905;53.370;-6.314;2022-07-17T07:18:20;9.15;;;4.70;;
29934;SDS011;19905;53.370;-6.314;2022-07-17T07:20:49;12.20;;;4.80;;
29934;SDS011;19905;53.370;-6.314;2022-07-17T07:23:17;8.32;;;4.40;;
29934;SDS011;19905;53.370;-6.314;2022-07-17T07:25:47;11.75;;;5.20;;
29934;SDS011;19905;53.370;-6.314;2022-07-17T07:28:17;7.75;;;4.38;;
29934;SDS011;19905;53.370;-6.314;2022-07-17T07:30:45;7.00;;;4.28;;
29934;SDS011;19905;53.370;-6.314;2022-07-17T07:33:14;8.70;;;4.28;;
29934;SDS011;19905;53.370;-6.314;2022-07-17T07:35:44;10.15;;;3.95;;
29934;SDS011;19905;53.370;-6.314;2022-07-17T07:38:14;6.55;;;4.60;;
29934;SDS011;19905;53.370;-6.314;2022-07-17T07:40:42;8.38;;;4.40;;
29934;SDS011;19905;53.370;-6.314;2022-07-17T07:43:12;8.43;;;4.93;;
29934;SDS011;19905;53.370;-6.314;2022-07-17T07:45:41;7.88;;;4.50;;
29934;SDS011;19905;53.370;-6.314;2022-07-17T07:48:09;7.38;;;4.65;;
29934;SDS011;19905;53.370;-6.314;2022-07-17T07:50:38;8.93;;;4.80;;
29934;SDS011;19905;53.370;-6.314;2022-07-17T07:53:07;7.60;;;4.50;;
29934;SDS011;19905;53.370;-6.314;2022-07-17T07:55:36;6.50;;;4.97;;
29934;SDS011;19905;53.370;-6.314;2022-07-17T07:58:06;7.78;;;4.93;;
29934;SDS011;19905;53.370;-6.314;2022-07-17T08:00:39;8.40;;;4.75;;
29934;SDS011;19905;53.370;-6.314;2022-07-17T08:03:13;9.05;;;5.13;;
29934;SDS011;19905;53.370;-6.314;2022-07-17T08:05:48;10.57;;;5.53;;
29934;SDS011;19905;53.370;-6.314;2022-07-17T08:08:17;8.57;;;4.90;;
29934;SDS011;19905;53.370;-6.314;2022-07-17T08:10:45;9.65;;;5.20;;
29934;SDS011;19905;53.370;-6.314;2022-07-17T08:13:16;8.00;;;5.00;;
29934;SDS011;19905;53.370;-6.314;2022-07-17T08:15:47;9.82;;;5.20;;
29934;SDS011;19905;53.370;-6.314;2022-07-17T08:18:16;6.97;;;4.85;;
29934;SDS011;19905;53.370;-6.314;2022-07-17T08:20:46;9.13;;;5.40;;
29934;SDS011;19905;53.370;-6.314;2022-07-17T08:23:18;9.23;;;5.30;;
29934;SDS011;19905;53.370;-6.314;2022-07-17T08:25:47;11.85;;;5.50;;
29934;SDS011;19905;53.370;-6.314;2022-07-17T08:28:16;8.05;;;4.95;;
29934;SDS011;19905;53.370;-6.314;2022-07-17T08:30:47;12.05;;;5.63;;
29934;SDS011;19905;53.370;-6.314;2022-07-17T08:33:15;9.20;;;5.20;;
29934;SDS011;19905;53.370;-6.314;2022-07-17T08:35:44;12.60;;;5.40;;
29934;SDS011;19905;53.370;-6.314;2022-07-17T08:38:13;10.77;;;5.07;;
29934;SDS011;19905;53.370;-6.314;2022-07-17T08:40:42;7.10;;;4.75;;
29934;SDS011;19905;53.370;-6.314;2022-07-17T08:43:14;7.32;;;4.50;;
29934;SDS011;19905;53.370;-6.314;2022-07-17T08:45:44;6.45;;;4.43;;
29934;SDS011;19905;53.370;-6.314;2022-07-17T08:48:15;7.75;;;4.72;;
29934;SDS011;19905;53.370;-6.314;2022-07-17T08:50:45;8.38;;;4.70;;
29934;SDS011;19905;53.370;-6.314;2022-07-17T08:53:14;8.25;;;4.80;;
29934;SDS011;19905;53.370;-6.314;2022-07-17T08:55:43;6.82;;;4.80;;
29934;SDS011;19905;53.370;-6.314;2022-07-17T08:58:14;9.27;;;4.78;;
29934;SDS011;19905;53.370;-6.314;2022-07-17T09:00:44;5.70;;;4.32;;
29934;SDS011;19905;53.370;-6.314;2022-07-17T09:03:15;6.78;;;4.53;;
29934;SDS011;19905;53.370;-6.314;2022-07-17T09:05:44;7.82;;;4.53;;
29934;SDS011;19905;53.370;-6.314;2022-07-17T09:08:17;7.55;;;4.53;;
29934;SDS011;19905;53.370;-6.314;2022-07-17T09:10:48;8.70;;;4.60;;
29934;SDS011;19905;53.370;-6.314;2022-07-17T09:13:21;7.60;;;4.50;;
29934;SDS011;19905;53.370;-6.314;2022-07-17T09:15:52;7.25;;;4.82;;
29934;SDS011;19905;53.370;-6.314;2022-07-17T09:18:25;6.07;;;4.07;;
29934;SDS011;19905;53.370;-6.314;2022-07-17T09:20:55;6.63;;;4.22;;
29934;SDS011;19905;53.370;-6.314;2022-07-17T09:23:26;6.97;;;4.38;;
29934;SDS011;19905;53.370;-6.314;2022-07-17T09:26:11;8.48;;;4.72;;
29934;SDS011;19905;53.370;-6.314;2022-07-17T09:28:44;7.32;;;4.25;;
29934;SDS011;19905;53.370;-6.314;2022-07-17T09:31:25;7.93;;;4.53;;
29934;SDS011;19905;53.370;-6.314;2022-07-17T09:33:56;7.47;;;4.55;;
29934;SDS011;19905;53.370;-6.314;2022-07-17T09:36:25;8.48;;;4.38;;
29934;SDS011;19905;53.370;-6.314;2022-07-17T09:38:56;9.57;;;4.07;;
29934;SDS011;19905;53.370;-6.314;2022-07-17T09:41:28;11.32;;;4.38;;
29934;SDS011;19905;53.370;-6.314;2022-07-17T09:44:01;7.82;;;4.30;;
29934;SDS011;19905;53.370;-6.314;2022-07-17T09:46:32;7.60;;;4.22;;
29934;SDS011;19905;53.370;-6.314;2022-07-17T09:49:10;8.50;;;4.20;;
29934;SDS011;19905;53.370;-6.314;2022-07-17T09:55:27;8.02;;;4.20;;
29934;SDS011;19905;53.370;-6.314;2022-07-17T10:04:36;5.13;;;3.83;;
29934;SDS011;19905;53.370;-6.314;2022-07-17T10:07:07;7.80;;;4.50;;
29934;SDS011;19905;53.370;-6.314;2022-07-17T10:09:37;9.02;;;4.18;;
29934;SDS011;19905;53.370;-6.314;2022-07-17T10:12:13;6.35;;;4.15;;
29934;SDS011;19905;53.370;-6.314;2022-07-17T10:14:46;8.57;;;4.50;;
29934;SDS011;19905;53.370;-6.314;2022-07-17T10:19:59;6.15;;;4.60;;
29934;SDS011;19905;53.370;-6.314;2022-07-17T10:22:40;6.43;;;4.45;;
29934;SDS011;19905;53.370;-6.314;2022-07-17T10:27:57;6.07;;;4.10;;
29934;SDS011;19905;53.370;-6.314;2022-07-17T10:30:27;6.80;;;4.25;;
29934;SDS011;19905;53.370;-6.314;2022-07-17T10:32:58;8.63;;;4.28;;
29934;SDS011;19905;53.370;-6.314;2022-07-17T10:38:11;7.45;;;4.13;;
29934;SDS011;19905;53.370;-6.314;2022-07-17T10:40:41;8.77;;;4.38;;
29934;SDS011;19905;53.370;-6.314;2022-07-17T10:43:11;8.65;;;4.38;;
29934;SDS011;19905;53.370;-6.314;2022-07-17T10:45:52;8.90;;;3.97;;
29934;SDS011;19905;53.370;-6.314;2022-07-17T10:48:26;10.98;;;3.95;;
29934;SDS011;19905;53.370;-6.314;2022-07-17T10:51:09;10.25;;;4.38;;
29934;SDS011;19905;53.370;-6.314;2022-07-17T10:53:42;7.97;;;4.07;;
29934;SDS011;19905;53.370;-6.314;2022-07-17T10:56:10;12.07;;;4.35;;
29934;SDS011;19905;53.370;-6.314;2022-07-17T11:01:41;8.80;;;4.40;;
29934;SDS011;19905;53.370;-6.314;2022-07-17T11:04:12;8.52;;;4.10;;
29934;SDS011;19905;53.370;-6.314;2022-07-17T11:06:44;7.50;;;3.83;;
29934;SDS011;19905;53.370;-6.314;2022-07-17T11:09:18;9.38;;;4.32;;
29934;SDS011;19905;53.370;-6.314;2022-07-17T11:12:03;7.13;;;4.20;;
29934;SDS011;19905;53.370;-6.314;2022-07-17T11:14:31;8.80;;;4.05;;
29934;SDS011;19905;53.370;-6.314;2022-07-17T11:17:01;7.47;;;4.20;;
29934;SDS011;19905;53.370;-6.314;2022-07-17T11:19:37;13.20;;;4.10;;
29934;SDS011;19905;53.370;-6.314;2022-07-17T11:22:16;8.82;;;4.18;;
29934;SDS011;19905;53.370;-6.314;2022-07-17T11:27:40;7.95;;;4.10;;
29934;SDS011;19905;53.370;-6.314;2022-07-17T11:30:11;7.88;;;3.80;;
29934;SDS011;19905;53.370;-6.314;2022-07-17T11:35:48;8.95;;;3.83;;
29934;SDS011;19905;53.370;-6.314;2022-07-17T11:38:25;8.15;;;4.03;;
29934;SDS011;19905;53.370;-6.314;2022-07-17T11:40:57;9.07;;;4.00;;
29934;SDS011;19905;53.370;-6.314;2022-07-17T11:43:38;10.85;;;3.80;;
29934;SDS011;19905;53.370;-6.314;2022-07-17T11:49:02;9.90;;;4.28;;
29934;SDS011;19905;53.370;-6.314;2022-07-17T11:51:34;8.13;;;3.63;;
29934;SDS011;19905;53.370;-6.314;2022-07-17T11:54:18;9.70;;;3.60;;
29934;SDS011;19905;53.370;-6.314;2022-07-17T11:56:55;10.32;;;3.90;;
29934;SDS011;19905;53.370;-6.314;2022-07-17T11:59:31;10.40;;;3.90;;
29934;SDS011;19905;53.370;-6.314;2022-07-17T12:02:06;8.57;;;3.85;;
29934;SDS011;19905;53.370;-6.314;2022-07-17T12:04:47;9.25;;;4.07;;
29934;SDS011;19905;53.370;-6.314;2022-07-17T12:07:18;11.15;;;3.95;;
29934;SDS011;19905;53.370;-6.314;2022-07-17T12:09:48;14.07;;;4.20;;
29934;SDS011;19905;53.370;-6.314;2022-07-17T12:12:19;13.20;;;4.18;;
29934;SDS011;19905;53.370;-6.314;2022-07-17T12:14:50;9.55;;;3.80;;
29934;SDS011;19905;53.370;-6.314;2022-07-17T12:17:22;10.07;;;3.92;;
29934;SDS011;19905;53.370;-6.314;2022-07-17T12:20:01;11.00;;;3.90;;
29934;SDS011;19905;53.370;-6.314;2022-07-17T12:22:41;6.97;;;3.97;;
29934;SDS011;19905;53.370;-6.314;2022-07-17T12:25:22;12.15;;;4.90;;
29934;SDS011;19905;53.370;-6.314;2022-07-17T12:27:53;11.93;;;4.47;;
29934;SDS011;19905;53.370;-6.314;2022-07-17T12:30:22;11.98;;;4.07;;
29934;SDS011;19905;53.370;-6.314;2022-07-17T12:32:50;7.90;;;3.88;;
29934;SDS011;19905;53.370;-6.314;2022-07-17T12:35:20;6.97;;;3.55;;
29934;SDS011;19905;53.370;-6.314;2022-07-17T12:37:49;8.50;;;3.45;;
29934;SDS011;19905;53.370;-6.314;2022-07-17T12:40:18;5.47;;;3.20;;
29934;SDS011;19905;53.370;-6.314;2022-07-17T12:42:49;9.10;;;3.88;;
29934;SDS011;19905;53.370;-6.314;2022-07-17T12:45:17;7.40;;;3.30;;
29934;SDS011;19905;53.370;-6.314;2022-07-17T12:47:46;8.05;;;3.17;;
29934;SDS011;19905;53.370;-6.314;2022-07-17T12:50:15;9.07;;;3.25;;
29934;SDS011;19905;53.370;-6.314;2022-07-17T12:52:44;8.32;;;3.40;;
29934;SDS011;19905;53.370;-6.314;2022-07-17T12:55:12;8.20;;;3.78;;
29934;SDS011;19905;53.370;-6.314;2022-07-17T12:57:40;6.78;;;3.55;;
29934;SDS011;19905;53.370;-6.314;2022-07-17T13:00:12;6.88;;;3.65;;
29934;SDS011;19905;53.370;-6.314;2022-07-17T13:02:41;6.70;;;3.42;;
29934;SDS011;19905;53.370;-6.314;2022-07-17T13:05:28;6.45;;;3.42;;
29934;SDS011;19905;53.370;-6.314;2022-07-17T13:07:57;9.45;;;3.92;;
29934;SDS011;19905;53.370;-6.314;2022-07-17T13:10:25;8.13;;;3.75;;
29934;SDS011;19905;53.370;-6.314;2022-07-17T13:12:54;9.18;;;3.55;;
29934;SDS011;19905;53.370;-6.314;2022-07-17T13:15:25;6.88;;;3.55;;
29934;SDS011;19905;53.370;-6.314;2022-07-17T13:17:53;5.50;;;3.40;;
29934;SDS011;19905;53.370;-6.314;2022-07-17T13:20:22;7.00;;;3.50;;
29934;SDS011;19905;53.370;-6.314;2022-07-17T13:22:51;6.43;;;3.40;;
29934;SDS011;19905;53.370;-6.314;2022-07-17T13:25:22;6.35;;;3.20;;
29934;SDS011;19905;53.370;-6.314;2022-07-17T13:27:51;7.53;;;3.50;;
29934;SDS011;19905;53.370;-6.314;2022-07-17T13:30:20;6.95;;;3.25;;
29934;SDS011;19905;53.370;-6.314;2022-07-17T13:32:51;6.15;;;3.22;;
29934;SDS011;19905;53.370;-6.314;2022-07-17T13:35:20;8.55;;;3.60;;
29934;SDS011;19905;53.370;-6.314;2022-07-17T13:37:49;8.70;;;3.28;;
29934;SDS011;19905;53.370;-6.314;2022-07-17T13:40:18;5.25;;;3.35;;
29934;SDS011;19905;53.370;-6.314;2022-07-17T13:42:46;9.02;;;3.88;;
29934;SDS011;19905;53.370;-6.314;2022-07-17T13:45:15;12.38;;;3.67;;
29934;SDS011;19905;53.370;-6.314;2022-07-17T13:47:43;7.38;;;3.40;;
29934;SDS011;19905;53.370;-6.314;2022-07-17T13:50:13;9.15;;;3.70;;
29934;SDS011;19905;53.370;-6.314;2022-07-17T13:52:41;10.10;;;3.47;;
29934;SDS011;19905;53.370;-6.314;2022-07-17T13:55:10;8.45;;;2.92;;
29934;SDS011;19905;53.370;-6.314;2022-07-17T13:57:59;10.15;;;3.58;;
29934;SDS011;19905;53.370;-6.314;2022-07-17T14:00:28;7.88;;;3.35;;
29934;SDS011;19905;53.370;-6.314;2022-07-17T14:02:57;9.60;;;3.40;;
29934;SDS011;19905;53.370;-6.314;2022-07-17T14:05:27;7.85;;;3.03;;
29934;SDS011;19905;53.370;-6.314;2022-07-17T14:07:56;7.20;;;4.00;;
29934;SDS011;19905;53.370;-6.314;2022-07-17T14:10:25;7.10;;;3.70;;
29934;SDS011;19905;53.370;-6.314;2022-07-17T14:12:53;6.82;;;3.67;;
29934;SDS011;19905;53.370;-6.314;2022-07-17T14:15:22;8.25;;;3.70;;
29934;SDS011;19905;53.370;-6.314;2022-07-17T14:17:51;7.22;;;3.47;;
29934;SDS011;19905;53.370;-6.314;2022-07-17T14:20:20;5.55;;;2.60;;
29934;SDS011;19905;53.370;-6.314;2022-07-17T14:22:50;5.57;;;3.08;;
29934;SDS011;19905;53.370;-6.314;2022-07-17T14:25:18;9.80;;;2.97;;
29934;SDS011;19905;53.370;-6.314;2022-07-17T14:27:47;9.20;;;3.00;;
29934;SDS011;19905;53.370;-6.314;2022-07-17T14:30:15;7.38;;;2.80;;
29934;SDS011;19905;53.370;-6.314;2022-07-17T14:32:44;6.95;;;2.67;;
29934;SDS011;19905;53.370;-6.314;2022-07-17T14:35:14;6.97;;;2.70;;
29934;SDS011;19905;53.370;-6.314;2022-07-17T14:37:42;4.40;;;2.75;;
29934;SDS011;19905;53.370;-6.314;2022-07-17T14:40:13;7.00;;;2.70;;
29934;SDS011;19905;53.370;-6.314;2022-07-17T14:42:41;7.97;;;2.90;;
29934;SDS011;19905;53.370;-6.314;2022-07-17T14:45:10;5.43;;;2.80;;
29934;SDS011;19905;53.370;-6.314;2022-07-17T14:47:39;5.22;;;2.70;;
29934;SDS011;19905;53.370;-6.314;2022-07-17T14:50:08;8.02;;;2.70;;
29934;SDS011;19905;53.370;-6.314;2022-07-17T14:52:37;5.45;;;2.85;;
29934;SDS011;19905;53.370;-6.314;2022-07-17T14:55:07;6.82;;;2.60;;
29934;SDS011;19905;53.370;-6.314;2022-07-17T14:57:38;5.05;;;2.30;;
29934;SDS011;19905;53.370;-6.314;2022-07-17T15:00:07;4.60;;;2.40;;
29934;SDS011;19905;53.370;-6.314;2022-07-17T15:02:37;3.90;;;2.40;;
29934;SDS011;19905;53.370;-6.314;2022-07-17T15:05:06;5.43;;;2.58;;
29934;SDS011;19905;53.370;-6.314;2022-07-17T15:07:35;4.80;;;2.63;;
29934;SDS011;19905;53.370;-6.314;2022-07-17T15:10:04;7.50;;;2.78;;
29934;SDS011;19905;53.370;-6.314;2022-07-17T15:12:33;5.70;;;2.72;;
29934;SDS011;19905;53.370;-6.314;2022-07-17T15:15:04;5.13;;;2.40;;
29934;SDS011;19905;53.370;-6.314;2022-07-17T15:17:33;7.20;;;2.42;;
29934;SDS011;19905;53.370;-6.314;2022-07-17T15:20:01;6.30;;;2.50;;